sensor_id;sensor_type;location;lat;lon;timestamp;pressure;altitude;pressure_sealevel;temperature;humidity
829;BME280;396;52.558;13.188;2023-02-21T00:01:39;100659.19;;;9.01;100.00
829;BME280;396;52.558;13.188;2023-02-21T00:04:22;100656.56;;;8.96;100.00
829;BME280;396;52.558;13.188;2023-02-21T00:07:08;100663.56;;;8.97;100.00
829;BME280;396;52.558;13.188;2023-02-21T00:09:52;100650.78;;;9.02;100.00
829;BME280;396;52.558;13.188;2023-02-21T00:12:36;100654.59;;;9.01;100.00
829;BME280;396;52.558;13.188;2023-02-21T00:15:19;100650.59;;;8.99;100.00
829;BME280;396;52.558;13.188;2023-02-21T00:18:03;100649.19;;;9.01;100.00
829;BME280;396;52.558;13.188;2023-02-21T00:20:47;100653.84;;;8.96;100.00
829;BME280;396;52.558;13.188;2023-02-21T00:23:34;100651.38;;;8.99;100.00
829;BME280;396;52.558;13.188;2023-02-21T00:26:18;100652.75;;;8.97;100.00
829;BME280;396;52.558;13.188;2023-02-21T00:29:02;100653.84;;;8.96;100.00
829;BME280;396;52.558;13.188;2023-02-21T00:31:46;100645.69;;;9.01;100.00
829;BME280;396;52.558;13.188;2023-02-21T00:34:30;100665.16;;;8.98;100.00
829;BME280;396;52.558;13.188;2023-02-21T00:37:14;100659.19;;;9.01;100.00
829;BME280;396;52.558;13.188;2023-02-21T00:39:59;100663.22;;;9.03;100.00
829;BME280;396;52.558;13.188;2023-02-21T00:42:43;100658.38;;;9.00;100.00
829;BME280;396;52.558;13.188;2023-02-21T00:45:27;100646.47;;;9.01;100.00
829;BME280;396;52.558;13.188;2023-02-21T00:48:18;100648.38;;;9.01;100.00
829;BME280;396;52.558;13.188;2023-02-21T00:51:02;100649.91;;;9.07;100.00
829;BME280;396;52.558;13.188;2023-02-21T00:53:46;100644.50;;;9.07;100.00
829;BME280;396;52.558;13.188;2023-02-21T00:56:31;100640.50;;;9.04;100.00
829;BME280;396;52.558;13.188;2023-02-21T00:59:15;100645.69;;;9.01;100.00
829;BME280;396;52.558;13.188;2023-02-21T01:01:59;100647.81;;;9.04;100.00
829;BME280;396;52.558;13.188;2023-02-21T01:04:43;100652.13;;;9.05;100.00
829;BME280;396;52.558;13.188;2023-02-21T01:07:27;100654.81;;;9.05;100.00
829;BME280;396;52.558;13.188;2023-02-21T01:10:11;100657.00;;;9.03;100.00
829;BME280;396;52.558;13.188;2023-02-21T01:12:56;100640.16;;;9.11;100.00
829;BME280;396;52.558;13.188;2023-02-21T01:15:40;100655.31;;;9.07;100.00
829;BME280;396;52.558;13.188;2023-02-21T01:18:24;100644.00;;;9.05;100.00
829;BME280;396;52.558;13.188;2023-02-21T01:21:11;100644.00;;;9.05;100.00
829;BME280;396;52.558;13.188;2023-02-21T01:23:55;100621.81;;;9.08;100.00
829;BME280;396;52.558;13.188;2023-02-21T01:26:39;100629.56;;;9.15;100.00
829;BME280;396;52.558;13.188;2023-02-21T01:29:24;100637.44;;;9.11;100.00
829;BME280;396;52.558;13.188;2023-02-21T01:32:08;100627.72;;;9.10;100.00
829;BME280;396;52.558;13.188;2023-02-21T01:34:52;100624.47;;;9.13;100.00
829;BME280;396;52.558;13.188;2023-02-21T01:37:38;100624.16;;;9.15;100.00
829;BME280;396;52.558;13.188;2023-02-21T01:40:22;100627.66;;;9.15;100.00
829;BME280;396;52.558;13.188;2023-02-21T01:43:13;100629.00;;;9.18;100.00
829;BME280;396;52.558;13.188;2023-02-21T01:45:58;100621.16;;;9.16;100.00
829;BME280;396;52.558;13.188;2023-02-21T01:48:42;100619.06;;;9.13;100.00
829;BME280;396;52.558;13.188;2023-02-21T01:51:31;100614.09;;;9.20;100.00
829;BME280;396;52.558;13.188;2023-02-21T01:54:17;100614.88;;;9.21;100.00
829;BME280;396;52.558;13.188;2023-02-21T01:57:03;100618.91;;;9.23;100.00
829;BME280;396;52.558;13.188;2023-02-21T01:59:54;100608.09;;;9.23;100.00
829;BME280;396;52.558;13.188;2023-02-21T02:02:47;100608.09;;;9.23;100.00
829;BME280;396;52.558;13.188;2023-02-21T02:05:34;100599.19;;;9.23;100.00
829;BME280;396;52.558;13.188;2023-02-21T02:08:24;100601.09;;;9.22;100.00
829;BME280;396;52.558;13.188;2023-02-21T02:11:20;100589.41;;;9.27;100.00
829;BME280;396;52.558;13.188;2023-02-21T02:14:19;100603.81;;;9.22;100.00
829;BME280;396;52.558;13.188;2023-02-21T02:16:57;100604.97;;;9.35;100.00
829;BME280;396;52.558;13.188;2023-02-21T02:22:51;100605.69;;;9.41;100.00
829;BME280;396;52.558;13.188;2023-02-21T02:25:32;100611.59;;;9.43;100.00
829;BME280;396;52.558;13.188;2023-02-21T02:28:14;100607.75;;;9.49;100.00
829;BME280;396;52.558;13.188;2023-02-21T02:31:18;100601.53;;;9.48;100.00
829;BME280;396;52.558;13.188;2023-02-21T02:37:21;100614.84;;;9.45;100.00
829;BME280;396;52.558;13.188;2023-02-21T02:39:56;100606.34;;;9.51;100.00
829;BME280;396;52.558;13.188;2023-02-21T02:42:42;100595.47;;;9.56;100.00
829;BME280;396;52.558;13.188;2023-02-21T02:45:14;100597.44;;;9.51;100.00
829;BME280;396;52.558;13.188;2023-02-21T02:47:44;100600.44;;;9.49;100.00
829;BME280;396;52.558;13.188;2023-02-21T02:50:16;100597.44;;;9.51;100.00
829;BME280;396;52.558;13.188;2023-02-21T02:52:49;100605.25;;;9.52;100.00
829;BME280;396;52.558;13.188;2023-02-21T02:55:34;100600.06;;;9.56;100.00
829;BME280;396;52.558;13.188;2023-02-21T02:58:03;100610.28;;;9.59;100.00
829;BME280;396;52.558;13.188;2023-02-21T03:00:31;100607.59;;;9.59;100.00
829;BME280;396;52.558;13.188;2023-02-21T03:03:27;100594.19;;;9.68;100.00
829;BME280;396;52.558;13.188;2023-02-21T03:06:15;100587.28;;;9.62;100.00
829;BME280;396;52.558;13.188;2023-02-21T03:08:51;100594.50;;;9.66;100.00
829;BME280;396;52.558;13.188;2023-02-21T03:11:20;100588.50;;;9.69;100.00
829;BME280;396;52.558;13.188;2023-02-21T03:13:52;100573.50;;;9.77;100.00
829;BME280;396;52.558;13.188;2023-02-21T03:16:24;100591.72;;;9.71;100.00
829;BME280;396;52.558;13.188;2023-02-21T03:18:55;100585.78;;;9.69;100.00
829;BME280;396;52.558;13.188;2023-02-21T03:21:27;100588.94;;;9.76;100.00
829;BME280;396;52.558;13.188;2023-02-21T03:23:57;100585.03;;;9.82;100.00
829;BME280;396;52.558;13.188;2023-02-21T03:26:26;100609.91;;;9.84;100.00
829;BME280;396;52.558;13.188;2023-02-21T03:28:55;100582.75;;;9.90;100.00
829;BME280;396;52.558;13.188;2023-02-21T03:31:25;100577.88;;;9.92;100.00
829;BME280;396;52.558;13.188;2023-02-21T03:33:54;100590.28;;;9.93;100.00
829;BME280;396;52.558;13.188;2023-02-21T03:36:21;100592.56;;;9.85;100.00
829;BME280;396;52.558;13.188;2023-02-21T03:38:49;100596.97;;;9.81;100.00
829;BME280;396;52.558;13.188;2023-02-21T03:41:16;100586.53;;;9.75;100.00
829;BME280;396;52.558;13.188;2023-02-21T03:43:43;100597.75;;;9.82;100.00
829;BME280;396;52.558;13.188;2023-02-21T03:46:09;100596.47;;;9.79;100.00
829;BME280;396;52.558;13.188;2023-02-21T03:48:36;100590.97;;;9.84;100.00
829;BME280;396;52.558;13.188;2023-02-21T03:51:03;100594.47;;;9.85;100.00
829;BME280;396;52.558;13.188;2023-02-21T03:53:29;100593.56;;;9.90;100.00
829;BME280;396;52.558;13.188;2023-02-21T03:55:57;100584.25;;;9.96;100.00
829;BME280;396;52.558;13.188;2023-02-21T03:58:24;100584.78;;;9.98;100.00
829;BME280;396;52.558;13.188;2023-02-21T04:00:51;100591.09;;;9.93;100.00
829;BME280;396;52.558;13.188;2023-02-21T04:03:18;100593.91;;;10.02;100.00
829;BME280;396;52.558;13.188;2023-02-21T04:05:44;100591.91;;;10.07;100.00
829;BME280;396;52.558;13.188;2023-02-21T04:08:11;100601.75;;;10.17;100.00
829;BME280;396;52.558;13.188;2023-02-21T04:10:38;100600.16;;;10.16;100.00
829;BME280;396;52.558;13.188;2023-02-21T04:13:06;100609.88;;;10.17;100.00
829;BME280;396;52.558;13.188;2023-02-21T04:15:33;100607.69;;;10.19;100.00
829;BME280;396;52.558;13.188;2023-02-21T04:18:00;100603.31;;;10.23;100.00
829;BME280;396;52.558;13.188;2023-02-21T04:20:26;100616.03;;;10.23;100.00
829;BME280;396;52.558;13.188;2023-02-21T04:22:53;100617.34;;;10.25;100.00
829;BME280;396;52.558;13.188;2023-02-21T04:25:19;100611.94;;;10.25;100.00
829;BME280;396;52.558;13.188;2023-02-21T04:27:46;100617.34;;;10.25;100.00
829;BME280;396;52.558;13.188;2023-02-21T04:30:14;100620.34;;;10.24;100.00
829;BME280;396;52.558;13.188;2023-02-21T04:32:41;100621.88;;;10.30;100.00
829;BME280;396;52.558;13.188;2023-02-21T04:35:07;100629.94;;;10.16;100.00
829;BME280;396;52.558;13.188;2023-02-21T04:37:34;100623.41;;;10.17;100.00
829;BME280;396;52.558;13.188;2023-02-21T04:40:00;100629.94;;;10.16;100.00
829;BME280;396;52.558;13.188;2023-02-21T04:42:27;100619.41;;;10.15;100.00
829;BME280;396;52.558;13.188;2023-02-21T04:44:54;100625.09;;;10.13;100.00
829;BME280;396;52.558;13.188;2023-02-21T04:47:22;100624.41;;;10.07;100.00
829;BME280;396;52.558;13.188;2023-02-21T04:49:48;100627.09;;;10.07;100.00
829;BME280;396;52.558;13.188;2023-02-21T04:52:16;100622.97;;;9.96;100.00
829;BME280;396;52.558;13.188;2023-02-21T04:54:44;100617.84;;;9.95;100.00
829;BME280;396;52.558;13.188;2023-02-21T04:57:11;100619.53;;;9.91;100.00
829;BME280;396;52.558;13.188;2023-02-21T04:59:38;100622.75;;;9.93;100.00
829;BME280;396;52.558;13.188;2023-02-21T05:02:05;100612.03;;;9.88;100.00
829;BME280;396;52.558;13.188;2023-02-21T05:04:34;100615.22;;;9.90;100.00
829;BME280;396;52.558;13.188;2023-02-21T05:07:01;100623.22;;;9.81;100.00
829;BME280;396;52.558;13.188;2023-02-21T05:09:27;100613.19;;;9.81;100.00
829;BME280;396;52.558;13.188;2023-02-21T05:11:54;100630.59;;;9.75;100.00
829;BME280;396;52.558;13.188;2023-02-21T05:14:21;100624.09;;;9.76;100.00
829;BME280;396;52.558;13.188;2023-02-21T05:16:47;100629.50;;;9.76;100.00
829;BME280;396;52.558;13.188;2023-02-21T05:19:17;100618.38;;;9.78;100.00
829;BME280;396;52.558;13.188;2023-02-21T05:21:53;100628.25;;;9.69;100.00
829;BME280;396;52.558;13.188;2023-02-21T05:24:20;100625.78;;;9.72;100.00
829;BME280;396;52.558;13.188;2023-02-21T05:26:46;100624.97;;;9.72;100.00
829;BME280;396;52.558;13.188;2023-02-21T05:29:13;100622.78;;;9.74;100.00
829;BME280;396;52.558;13.188;2023-02-21T05:31:40;100621.78;;;9.70;100.00
829;BME280;396;52.558;13.188;2023-02-21T05:34:07;100624.19;;;9.71;100.00
829;BME280;396;52.558;13.188;2023-02-21T05:36:33;100613.94;;;9.68;100.00
829;BME280;396;52.558;13.188;2023-02-21T05:39:01;100627.97;;;9.70;100.00
829;BME280;396;52.558;13.188;2023-02-21T05:41:50;100630.69;;;9.70;100.00
829;BME280;396;52.558;13.188;2023-02-21T05:44:22;100640.75;;;9.65;100.00
829;BME280;396;52.558;13.188;2023-02-21T05:46:49;100631.84;;;9.64;100.00
829;BME280;396;52.558;13.188;2023-02-21T05:49:15;100628.56;;;9.67;100.00
829;BME280;396;52.558;13.188;2023-02-21T05:51:42;100628.34;;;9.64;100.00
829;BME280;396;52.558;13.188;2023-02-21T05:54:14;100641.63;;;9.60;100.00
829;BME280;396;52.558;13.188;2023-02-21T05:56:42;100644.34;;;9.60;100.00
829;BME280;396;52.558;13.188;2023-02-21T05:59:10;100660.94;;;9.53;100.00
829;BME280;396;52.558;13.188;2023-02-21T06:01:37;100654.81;;;9.48;100.00
829;BME280;396;52.558;13.188;2023-02-21T06:04:04;100655.09;;;9.46;100.00
829;BME280;396;52.558;13.188;2023-02-21T06:06:32;100660.50;;;9.46;100.00
829;BME280;396;52.558;13.188;2023-02-21T06:08:58;100663.94;;;9.52;100.00
829;BME280;396;52.558;13.188;2023-02-21T06:11:28;100659.69;;;9.46;100.00
829;BME280;396;52.558;13.188;2023-02-21T06:13:57;100673.22;;;9.46;100.00
829;BME280;396;52.558;13.188;2023-02-21T06:16:24;100672.09;;;9.47;100.00
829;BME280;396;52.558;13.188;2023-02-21T06:18:52;100675.91;;;9.46;100.00
829;BME280;396;52.558;13.188;2023-02-21T06:21:19;100683.94;;;9.51;100.00
829;BME280;396;52.558;13.188;2023-02-21T06:23:46;100681.56;;;9.49;100.00
829;BME280;396;52.558;13.188;2023-02-21T06:26:13;100676.50;;;9.43;100.00
829;BME280;396;52.558;13.188;2023-02-21T06:28:42;100684.09;;;9.41;100.00
829;BME280;396;52.558;13.188;2023-02-21T06:31:08;100689.72;;;9.44;100.00
829;BME280;396;52.558;13.188;2023-02-21T06:33:35;100685.44;;;9.43;100.00
829;BME280;396;52.558;13.188;2023-02-21T06:36:04;100697.13;;;9.39;100.00
829;BME280;396;52.558;13.188;2023-02-21T06:38:31;100698.72;;;9.40;100.00
829;BME280;396;52.558;13.188;2023-02-21T06:40:58;100701.84;;;9.47;100.00
829;BME280;396;52.558;13.188;2023-02-21T06:43:24;100701.34;;;9.45;100.00
829;BME280;396;52.558;13.188;2023-02-21T06:45:52;100713.25;;;9.44;100.00
829;BME280;396;52.558;13.188;2023-02-21T06:48:19;100711.13;;;9.41;100.00
829;BME280;396;52.558;13.188;2023-02-21T06:50:45;100710.56;;;9.44;100.00
829;BME280;396;52.558;13.188;2023-02-21T06:53:12;100724.09;;;9.44;100.00
829;BME280;396;52.558;13.188;2023-02-21T06:55:39;100722.91;;;9.50;100.00
829;BME280;396;52.558;13.188;2023-02-21T06:58:06;100716.16;;;9.47;100.00
829;BME280;396;52.558;13.188;2023-02-21T07:00:32;100726.78;;;9.44;100.00
829;BME280;396;52.558;13.188;2023-02-21T07:03:00;100726.97;;;9.47;100.00
829;BME280;396;52.558;13.188;2023-02-21T07:05:27;100730.22;;;9.49;100.00
829;BME280;396;52.558;13.188;2023-02-21T07:07:58;100732.19;;;9.44;100.00
829;BME280;396;52.558;13.188;2023-02-21T07:10:25;100732.34;;;9.52;100.00
829;BME280;396;52.558;13.188;2023-02-21T07:12:52;100747.25;;;9.50;100.00
829;BME280;396;52.558;13.188;2023-02-21T07:15:18;100750.50;;;9.47;100.00
829;BME280;396;52.558;13.188;2023-02-21T07:17:45;100748.91;;;9.46;100.00
829;BME280;396;52.558;13.188;2023-02-21T07:20:13;100763.53;;;9.45;100.00
829;BME280;396;52.558;13.188;2023-02-21T07:22:39;100768.22;;;9.39;100.00
829;BME280;396;52.558;13.188;2023-02-21T07:25:06;100781.34;;;9.46;100.00
829;BME280;396;52.558;13.188;2023-02-21T07:27:33;100773.19;;;9.51;100.00
829;BME280;396;52.558;13.188;2023-02-21T07:29:59;100786.13;;;9.54;100.00
829;BME280;396;52.558;13.188;2023-02-21T07:32:26;100790.97;;;9.57;100.00
829;BME280;396;52.558;13.188;2023-02-21T07:34:52;100789.88;;;9.58;100.00
829;BME280;396;52.558;13.188;2023-02-21T07:37:20;100794.25;;;9.54;100.00
829;BME280;396;52.558;13.188;2023-02-21T07:39:47;100796.72;;;9.50;100.00
829;BME280;396;52.558;13.188;2023-02-21T07:42:14;100789.72;;;9.49;100.00
829;BME280;396;52.558;13.188;2023-02-21T07:44:40;100782.84;;;9.57;100.00
829;BME280;396;52.558;13.188;2023-02-21T07:47:07;100798.00;;;9.58;100.00
829;BME280;396;52.558;13.188;2023-02-21T07:49:37;100799.34;;;9.55;100.00
829;BME280;396;52.558;13.188;2023-02-21T07:52:03;100808.34;;;9.51;100.00
829;BME280;396;52.558;13.188;2023-02-21T07:54:31;100808.28;;;9.56;100.00
829;BME280;396;52.558;13.188;2023-02-21T07:56:58;100816.63;;;9.59;100.00
829;BME280;396;52.558;13.188;2023-02-21T07:59:25;100804.69;;;9.60;100.00
829;BME280;396;52.558;13.188;2023-02-21T08:01:51;100811.38;;;9.68;100.00
829;BME280;396;52.558;13.188;2023-02-21T08:04:18;100810.88;;;9.66;100.00
829;BME280;396;52.558;13.188;2023-02-21T08:06:46;100815.19;;;9.67;100.00
829;BME280;396;52.558;13.188;2023-02-21T08:09:13;100821.31;;;9.73;100.00
829;BME280;396;52.558;13.188;2023-02-21T08:11:41;100815.66;;;9.74;100.00
829;BME280;396;52.558;13.188;2023-02-21T08:14:08;100815.56;;;9.79;100.00
829;BME280;396;52.558;13.188;2023-02-21T08:16:34;100819.25;;;9.89;100.00
829;BME280;396;52.558;13.188;2023-02-21T08:19:01;100826.50;;;9.93;100.00
829;BME280;396;52.558;13.188;2023-02-21T08:21:29;100830.13;;;9.83;100.00
829;BME280;396;52.558;13.188;2023-02-21T08:23:56;100833.81;;;9.93;100.00
829;BME280;396;52.558;13.188;2023-02-21T08:26:23;100835.09;;;9.95;100.00
829;BME280;396;52.558;13.188;2023-02-21T08:28:51;100835.97;;;9.91;100.00
829;BME280;396;52.558;13.188;2023-02-21T08:31:18;100841.31;;;9.96;100.00
829;BME280;396;52.558;13.188;2023-02-21T08:33:44;100845.44;;;9.93;100.00
829;BME280;396;52.558;13.188;2023-02-21T08:36:11;100846.97;;;9.99;100.00
829;BME280;396;52.558;13.188;2023-02-21T08:38:38;100839.16;;;9.98;100.00
829;BME280;396;52.558;13.188;2023-02-21T08:41:05;100853.88;;;10.10;100.00
829;BME280;396;52.558;13.188;2023-02-21T08:43:31;100849.50;;;10.15;100.00
829;BME280;396;52.558;13.188;2023-02-21T08:45:59;100859.44;;;10.19;100.00
829;BME280;396;52.558;13.188;2023-02-21T08:48:27;100864.94;;;10.14;100.00
829;BME280;396;52.558;13.188;2023-02-21T08:50:53;100868.66;;;10.18;100.00
829;BME280;396;52.558;13.188;2023-02-21T08:53:20;100858.91;;;10.17;100.00
829;BME280;396;52.558;13.188;2023-02-21T08:55:46;100875.16;;;10.17;100.00
829;BME280;396;52.558;13.188;2023-02-21T08:58:13;100873.56;;;10.16;100.00
829;BME280;396;52.558;13.188;2023-02-21T09:00:40;100865.97;;;10.18;100.00
829;BME280;396;52.558;13.188;2023-02-21T09:03:08;100866.66;;;10.05;100.00
829;BME280;396;52.558;13.188;2023-02-21T09:05:34;100872.75;;;10.16;100.00
829;BME280;396;52.558;13.188;2023-02-21T09:08:01;100861.91;;;10.16;100.00
829;BME280;396;52.558;13.188;2023-02-21T09:10:31;100887.16;;;10.11;100.00
829;BME280;396;52.558;13.188;2023-02-21T09:12:58;100887.31;;;10.20;100.00
829;BME280;396;52.558;13.188;2023-02-21T09:15:25;100883.66;;;10.10;100.00
829;BME280;396;52.558;13.188;2023-02-21T09:17:52;100880.34;;;10.14;100.00
829;BME280;396;52.558;13.188;2023-02-21T09:20:22;100882.19;;;10.18;100.00
829;BME280;396;52.558;13.188;2023-02-21T09:22:49;100887.66;;;10.13;100.00
829;BME280;396;52.558;13.188;2023-02-21T09:25:18;100890.97;;;10.10;99.39
829;BME280;396;52.558;13.188;2023-02-21T09:27:47;100881.28;;;10.04;99.09
829;BME280;396;52.558;13.188;2023-02-21T09:30:16;100888.75;;;10.12;99.39
829;BME280;396;52.558;13.188;2023-02-21T09:32:43;100883.56;;;10.16;99.85
829;BME280;396;52.558;13.188;2023-02-21T09:35:10;100910.66;;;10.16;100.00
829;BME280;396;52.558;13.188;2023-02-21T09:37:41;100898.44;;;10.18;99.88
829;BME280;396;52.558;13.188;2023-02-21T09:40:14;100900.28;;;10.23;100.00
829;BME280;396;52.558;13.188;2023-02-21T09:42:43;100901.75;;;10.34;99.89
829;BME280;396;52.558;13.188;2023-02-21T09:45:13;100905.19;;;10.40;98.07
829;BME280;396;52.558;13.188;2023-02-21T09:47:42;100903.53;;;10.44;95.66
829;BME280;396;52.558;13.188;2023-02-21T09:50:13;100906.06;;;10.35;93.70
829;BME280;396;52.558;13.188;2023-02-21T09:52:41;100904.06;;;10.22;94.75
829;BME280;396;52.558;13.188;2023-02-21T09:55:15;100907.63;;;10.41;95.06
829;BME280;396;52.558;13.188;2023-02-21T09:57:46;100924.03;;;10.50;94.47
829;BME280;396;52.558;13.188;2023-02-21T10:00:17;100910.66;;;10.58;92.18
829;BME280;396;52.558;13.188;2023-02-21T10:02:53;100907.34;;;10.61;93.69
829;BME280;396;52.558;13.188;2023-02-21T10:05:32;100912.91;;;10.70;92.42
829;BME280;396;52.558;13.188;2023-02-21T10:08:12;100911.28;;;10.69;92.43
829;BME280;396;52.558;13.188;2023-02-21T10:10:44;100911.22;;;10.74;92.78
829;BME280;396;52.558;13.188;2023-02-21T10:13:21;100911.28;;;10.88;93.01
829;BME280;396;52.558;13.188;2023-02-21T10:15:54;100905.63;;;11.03;92.00
829;BME280;396;52.558;13.188;2023-02-21T10:18:31;100902.44;;;11.15;91.86
829;BME280;396;52.558;13.188;2023-02-21T10:21:01;100903.66;;;11.23;90.66
829;BME280;396;52.558;13.188;2023-02-21T10:23:35;100909.75;;;11.33;90.27
829;BME280;396;52.558;13.188;2023-02-21T10:26:05;100916.06;;;11.29;92.75
829;BME280;396;52.558;13.188;2023-02-21T10:28:34;100924.91;;;11.34;90.67
829;BME280;396;52.558;13.188;2023-02-21T10:31:05;100932.72;;;11.36;89.92
829;BME280;396;52.558;13.188;2023-02-21T10:33:36;100928.41;;;11.35;89.31
829;BME280;396;52.558;13.188;2023-02-21T10:36:09;100930.22;;;11.40;89.63
829;BME280;396;52.558;13.188;2023-02-21T10:38:40;100932.31;;;11.29;90.04
829;BME280;396;52.558;13.188;2023-02-21T10:41:09;100925.78;;;11.30;88.81
829;BME280;396;52.558;13.188;2023-02-21T10:43:40;100936.28;;;11.18;88.45
829;BME280;396;52.558;13.188;2023-02-21T10:46:14;100929.53;;;11.15;90.19
829;BME280;396;52.558;13.188;2023-02-21T10:48:43;100929.88;;;11.27;89.16
829;BME280;396;52.558;13.188;2023-02-21T10:51:13;100939.13;;;11.26;89.83
829;BME280;396;52.558;13.188;2023-02-21T10:53:43;100932.91;;;11.26;89.32
829;BME280;396;52.558;13.188;2023-02-21T10:56:35;100933.31;;;11.33;86.80
829;BME280;396;52.558;13.188;2023-02-21T10:59:06;100941.22;;;10.97;88.72
829;BME280;396;52.558;13.188;2023-02-21T11:01:36;100943.09;;;11.15;88.80
829;BME280;396;52.558;13.188;2023-02-21T11:04:05;100935.41;;;11.22;90.09
829;BME280;396;52.558;13.188;2023-02-21T11:06:35;100940.06;;;11.03;89.66
829;BME280;396;52.558;13.188;2023-02-21T11:09:23;100948.88;;;11.27;86.84
829;BME280;396;52.558;13.188;2023-02-21T11:11:59;100943.66;;;11.31;85.61
829;BME280;396;52.558;13.188;2023-02-21T11:14:28;100943.66;;;11.31;85.44
829;BME280;396;52.558;13.188;2023-02-21T11:17:13;100927.75;;;11.24;86.21
829;BME280;396;52.558;13.188;2023-02-21T11:19:49;100950.47;;;11.28;85.21
829;BME280;396;52.558;13.188;2023-02-21T11:22:18;100933.50;;;11.23;85.18
829;BME280;396;52.558;13.188;2023-02-21T11:24:55;100941.59;;;11.09;83.14
829;BME280;396;52.558;13.188;2023-02-21T11:27:24;100933.19;;;11.24;82.18
829;BME280;396;52.558;13.188;2023-02-21T11:29:52;100938.69;;;11.19;82.13
829;BME280;396;52.558;13.188;2023-02-21T11:32:26;100935.75;;;11.34;82.34
829;BME280;396;52.558;13.188;2023-02-21T11:35:01;100939.75;;;11.37;82.47
829;BME280;396;52.558;13.188;2023-02-21T11:37:28;100935.16;;;11.84;81.90
829;BME280;396;52.558;13.188;2023-02-21T11:39:58;100932.75;;;12.10;80.41
829;BME280;396;52.558;13.188;2023-02-21T11:42:28;100926.06;;;12.30;80.37
829;BME280;396;52.558;13.188;2023-02-21T11:45:09;100928.50;;;12.31;77.37
829;BME280;396;52.558;13.188;2023-02-21T11:47:43;100947.72;;;12.21;77.21
829;BME280;396;52.558;13.188;2023-02-21T11:50:17;100936.84;;;11.94;75.45
829;BME280;396;52.558;13.188;2023-02-21T11:52:53;100940.00;;;11.68;77.86
829;BME280;396;52.558;13.188;2023-02-21T11:55:24;100927.00;;;11.37;79.87
829;BME280;396;52.558;13.188;2023-02-21T11:57:57;100931.84;;;11.41;78.76
829;BME280;396;52.558;13.188;2023-02-21T12:00:30;100947.94;;;11.18;79.91
829;BME280;396;52.558;13.188;2023-02-21T12:03:09;100943.63;;;11.17;81.01
829;BME280;396;52.558;13.188;2023-02-21T12:05:50;100961.00;;;11.49;78.06
829;BME280;396;52.558;13.188;2023-02-21T12:08:42;100952.91;;;11.76;78.99
829;BME280;396;52.558;13.188;2023-02-21T12:11:33;100949.06;;;11.77;78.93
829;BME280;396;52.558;13.188;2023-02-21T12:14:11;100949.47;;;11.71;78.70
829;BME280;396;52.558;13.188;2023-02-21T12:16:50;100960.00;;;11.58;79.42
829;BME280;396;52.558;13.188;2023-02-21T12:19:35;100948.41;;;11.39;78.54
829;BME280;396;52.558;13.188;2023-02-21T12:22:12;100948.50;;;11.34;79.69
829;BME280;396;52.558;13.188;2023-02-21T12:24:55;100958.28;;;11.49;80.06
829;BME280;396;52.558;13.188;2023-02-21T12:27:35;100950.16;;;11.62;78.60
829;BME280;396;52.558;13.188;2023-02-21T12:30:18;100945.97;;;11.70;79.36
829;BME280;396;52.558;13.188;2023-02-21T12:32:58;100956.78;;;11.89;77.22
829;BME280;396;52.558;13.188;2023-02-21T12:36:01;100951.53;;;12.20;76.43
829;BME280;396;52.558;13.188;2023-02-21T12:38:42;100953.66;;;12.23;76.19
829;BME280;396;52.558;13.188;2023-02-21T12:41:22;100957.00;;;12.70;73.16
829;BME280;396;52.558;13.188;2023-02-21T12:43:56;100954.75;;;13.08;70.83
829;BME280;396;52.558;13.188;2023-02-21T12:46:30;100955.78;;;13.35;70.50
829;BME280;396;52.558;13.188;2023-02-21T12:49:04;100940.31;;;13.44;68.33
829;BME280;396;52.558;13.188;2023-02-21T12:51:35;100947.56;;;13.26;69.09
829;BME280;396;52.558;13.188;2023-02-21T12:54:06;100958.72;;;13.02;69.68
829;BME280;396;52.558;13.188;2023-02-21T12:56:41;100946.50;;;12.77;71.02
829;BME280;396;52.558;13.188;2023-02-21T12:59:16;100945.25;;;12.61;70.99
829;BME280;396;52.558;13.188;2023-02-21T13:01:47;100946.38;;;12.46;72.12
829;BME280;396;52.558;13.188;2023-02-21T13:04:21;100949.03;;;12.24;72.93
829;BME280;396;52.558;13.188;2023-02-21T13:06:52;100949.31;;;12.08;73.06
829;BME280;396;52.558;13.188;2023-02-21T13:09:27;100952.25;;;12.12;72.20
829;BME280;396;52.558;13.188;2023-02-21T13:12:06;100949.13;;;12.19;72.20
829;BME280;396;52.558;13.188;2023-02-21T13:14:40;100952.44;;;12.02;73.60
829;BME280;396;52.558;13.188;2023-02-21T13:17:10;100944.50;;;12.05;72.96
829;BME280;396;52.558;13.188;2023-02-21T13:19:44;100943.59;;;12.10;71.76
829;BME280;396;52.558;13.188;2023-02-21T13:25:09;100935.03;;;12.30;73.53
829;BME280;396;52.558;13.188;2023-02-21T13:27:52;100931.72;;;12.33;72.65
829;BME280;396;52.558;13.188;2023-02-21T13:30:24;100939.16;;;12.42;72.33
829;BME280;396;52.558;13.188;2023-02-21T13:32:54;100932.22;;;12.35;72.25
829;BME280;396;52.558;13.188;2023-02-21T13:35:28;100940.78;;;12.29;72.13
829;BME280;396;52.558;13.188;2023-02-21T13:37:55;100929.03;;;12.06;72.49
829;BME280;396;52.558;13.188;2023-02-21T13:40:30;100930.25;;;12.00;72.76
829;BME280;396;52.558;13.188;2023-02-21T13:43:00;100928.16;;;11.64;75.00
829;BME280;396;52.558;13.188;2023-02-21T13:45:29;100920.13;;;11.73;75.54
829;BME280;396;52.558;13.188;2023-02-21T13:48:21;100933.56;;;11.64;75.51
829;BME280;396;52.558;13.188;2023-02-21T13:50:49;100919.72;;;11.66;76.57
829;BME280;396;52.558;13.188;2023-02-21T13:53:18;100922.75;;;11.78;74.57
829;BME280;396;52.558;13.188;2023-02-21T13:56:14;100935.00;;;11.75;74.83
829;BME280;396;52.558;13.188;2023-02-21T13:58:41;100937.81;;;11.70;74.17
829;BME280;396;52.558;13.188;2023-02-21T14:07:08;100936.47;;;11.54;76.14